sensor_id;sensor_type;location;lat;lon;timestamp;P1;durP1;ratioP1;P2;durP2;ratioP2
43363;SDS011;40636;52.424;-1.948;2023-04-01T00:01:14;9.40;;;5.28;;
43363;SDS011;40636;52.424;-1.948;2023-04-01T00:03:41;7.93;;;4.38;;
43363;SDS011;40636;52.424;-1.948;2023-04-01T00:06:09;9.75;;;5.90;;
43363;SDS011;40636;52.424;-1.948;2023-04-01T00:08:39;11.90;;;5.60;;
43363;SDS011;40636;52.424;-1.948;2023-04-01T00:11:06;11.57;;;5.60;;
43363;SDS011;40636;52.424;-1.948;2023-04-01T00:13:33;8.48;;;5.82;;
43363;SDS011;40636;52.424;-1.948;2023-04-01T00:15:59;11.85;;;5.18;;
43363;SDS011;40636;52.424;-1.948;2023-04-01T00:18:29;9.80;;;5.32;;
43363;SDS011;40636;52.424;-1.948;2023-04-01T00:20:56;10.77;;;6.05;;
43363;SDS011;40636;52.424;-1.948;2023-04-01T00:23:22;13.60;;;6.13;;
43363;SDS011;40636;52.424;-1.948;2023-04-01T00:25:49;9.88;;;5.95;;
43363;SDS011;40636;52.424;-1.948;2023-04-01T00:28:16;8.73;;;6.15;;
43363;SDS011;40636;52.424;-1.948;2023-04-01T00:30:44;11.98;;;6.90;;
43363;SDS011;40636;52.424;-1.948;2023-04-01T00:33:12;10.02;;;6.07;;
43363;SDS011;40636;52.424;-1.948;2023-04-01T00:35:39;10.75;;;5.88;;
43363;SDS011;40636;52.424;-1.948;2023-04-01T00:38:06;11.18;;;6.03;;
43363;SDS011;40636;52.424;-1.948;2023-04-01T00:40:35;9.75;;;6.22;;
43363;SDS011;40636;52.424;-1.948;2023-04-01T00:43:09;10.15;;;5.65;;
43363;SDS011;40636;52.424;-1.948;2023-04-01T00:45:42;11.10;;;6.57;;
43363;SDS011;40636;52.424;-1.948;2023-04-01T00:48:10;9.95;;;5.53;;
43363;SDS011;40636;52.424;-1.948;2023-04-01T00:50:42;9.70;;;5.85;;
43363;SDS011;40636;52.424;-1.948;2023-04-01T00:53:14;10.60;;;5.70;;
43363;SDS011;40636;52.424;-1.948;2023-04-01T00:55:46;11.80;;;6.40;;
43363;SDS011;40636;52.424;-1.948;2023-04-01T00:58:17;8.10;;;5.45;;
43363;SDS011;40636;52.424;-1.948;2023-04-01T01:00:46;12.30;;;6.35;;
43363;SDS011;40636;52.424;-1.948;2023-04-01T01:03:17;10.90;;;6.97;;
43363;SDS011;40636;52.424;-1.948;2023-04-01T01:08:58;11.23;;;6.55;;
43363;SDS011;40636;52.424;-1.948;2023-04-01T01:14:21;10.48;;;6.28;;
43363;SDS011;40636;52.424;-1.948;2023-04-01T01:17:10;12.05;;;6.30;;
43363;SDS011;40636;52.424;-1.948;2023-04-01T01:36:43;12.68;;;6.72;;
43363;SDS011;40636;52.424;-1.948;2023-04-01T01:39:15;12.40;;;6.72;;
43363;SDS011;40636;52.424;-1.948;2023-04-01T01:41:44;9.45;;;5.45;;
43363;SDS011;40636;52.424;-1.948;2023-04-01T01:44:15;12.00;;;6.38;;
43363;SDS011;40636;52.424;-1.948;2023-04-01T01:46:43;12.23;;;6.82;;
43363;SDS011;40636;52.424;-1.948;2023-04-01T01:49:11;10.45;;;5.90;;
43363;SDS011;40636;52.424;-1.948;2023-04-01T01:51:41;12.45;;;6.15;;
43363;SDS011;40636;52.424;-1.948;2023-04-01T01:54:13;13.38;;;6.60;;
43363;SDS011;40636;52.424;-1.948;2023-04-01T01:56:41;12.10;;;5.53;;
43363;SDS011;40636;52.424;-1.948;2023-04-01T01:59:11;10.73;;;5.80;;
43363;SDS011;40636;52.424;-1.948;2023-04-01T02:01:42;13.48;;;7.10;;
43363;SDS011;40636;52.424;-1.948;2023-04-01T02:04:12;12.07;;;6.93;;
43363;SDS011;40636;52.424;-1.948;2023-04-01T02:06:42;11.70;;;6.32;;
43363;SDS011;40636;52.424;-1.948;2023-04-01T02:09:14;16.58;;;8.00;;
43363;SDS011;40636;52.424;-1.948;2023-04-01T02:11:43;13.77;;;6.18;;
43363;SDS011;40636;52.424;-1.948;2023-04-01T02:17:00;10.10;;;6.18;;
43363;SDS011;40636;52.424;-1.948;2023-04-01T02:19:39;18.45;;;7.43;;
43363;SDS011;40636;52.424;-1.948;2023-04-01T02:22:12;10.43;;;6.40;;
43363;SDS011;40636;52.424;-1.948;2023-04-01T02:24:42;12.15;;;6.40;;
43363;SDS011;40636;52.424;-1.948;2023-04-01T02:27:10;11.70;;;5.80;;
43363;SDS011;40636;52.424;-1.948;2023-04-01T02:29:37;13.60;;;5.90;;
43363;SDS011;40636;52.424;-1.948;2023-04-01T02:32:04;13.35;;;7.30;;
43363;SDS011;40636;52.424;-1.948;2023-04-01T02:34:32;12.10;;;5.90;;
43363;SDS011;40636;52.424;-1.948;2023-04-01T02:36:59;9.63;;;5.95;;
43363;SDS011;40636;52.424;-1.948;2023-04-01T02:39:26;10.90;;;5.80;;
43363;SDS011;40636;52.424;-1.948;2023-04-01T02:41:53;9.50;;;4.80;;
43363;SDS011;40636;52.424;-1.948;2023-04-01T02:44:20;10.05;;;4.85;;
43363;SDS011;40636;52.424;-1.948;2023-04-01T02:46:47;8.25;;;4.80;;
43363;SDS011;40636;52.424;-1.948;2023-04-01T02:49:14;8.82;;;5.57;;
43363;SDS011;40636;52.424;-1.948;2023-04-01T02:51:41;10.10;;;5.90;;
43363;SDS011;40636;52.424;-1.948;2023-04-01T02:54:07;6.82;;;4.85;;
43363;SDS011;40636;52.424;-1.948;2023-04-01T02:56:34;13.20;;;5.63;;
43363;SDS011;40636;52.424;-1.948;2023-04-01T02:59:01;11.27;;;6.28;;
43363;SDS011;40636;52.424;-1.948;2023-04-01T03:01:28;11.68;;;6.20;;
43363;SDS011;40636;52.424;-1.948;2023-04-01T03:03:54;10.35;;;5.25;;
43363;SDS011;40636;52.424;-1.948;2023-04-01T03:06:21;9.93;;;4.80;;
43363;SDS011;40636;52.424;-1.948;2023-04-01T03:08:48;8.93;;;4.47;;
43363;SDS011;40636;52.424;-1.948;2023-04-01T03:11:15;8.40;;;4.30;;
43363;SDS011;40636;52.424;-1.948;2023-04-01T03:13:41;12.45;;;3.60;;
43363;SDS011;40636;52.424;-1.948;2023-04-01T03:16:08;7.82;;;3.92;;
43363;SDS011;40636;52.424;-1.948;2023-04-01T03:18:34;6.40;;;3.40;;
43363;SDS011;40636;52.424;-1.948;2023-04-01T03:21:14;5.93;;;3.00;;
43363;SDS011;40636;52.424;-1.948;2023-04-01T03:23:47;6.00;;;2.95;;
43363;SDS011;40636;52.424;-1.948;2023-04-01T03:26:14;5.47;;;3.22;;
43363;SDS011;40636;52.424;-1.948;2023-04-01T03:28:41;5.28;;;2.80;;
43363;SDS011;40636;52.424;-1.948;2023-04-01T03:31:08;5.63;;;3.20;;
43363;SDS011;40636;52.424;-1.948;2023-04-01T03:33:35;5.88;;;2.97;;
43363;SDS011;40636;52.424;-1.948;2023-04-01T03:36:02;5.63;;;2.53;;
43363;SDS011;40636;52.424;-1.948;2023-04-01T03:38:33;6.75;;;2.88;;
43363;SDS011;40636;52.424;-1.948;2023-04-01T03:41:01;4.47;;;2.60;;
43363;SDS011;40636;52.424;-1.948;2023-04-01T03:43:28;4.53;;;2.30;;
43363;SDS011;40636;52.424;-1.948;2023-04-01T03:45:54;5.35;;;2.78;;
43363;SDS011;40636;52.424;-1.948;2023-04-01T03:48:23;4.20;;;2.65;;
43363;SDS011;40636;52.424;-1.948;2023-04-01T03:50:51;5.38;;;3.00;;
43363;SDS011;40636;52.424;-1.948;2023-04-01T03:53:18;5.43;;;2.53;;
43363;SDS011;40636;52.424;-1.948;2023-04-01T03:55:44;4.07;;;2.40;;
43363;SDS011;40636;52.424;-1.948;2023-04-01T03:58:11;5.93;;;2.80;;
43363;SDS011;40636;52.424;-1.948;2023-04-01T04:00:38;5.82;;;2.80;;
43363;SDS011;40636;52.424;-1.948;2023-04-01T04:03:05;6.40;;;2.60;;
43363;SDS011;40636;52.424;-1.948;2023-04-01T04:05:33;4.68;;;2.70;;
43363;SDS011;40636;52.424;-1.948;2023-04-01T04:08:00;4.75;;;3.03;;
43363;SDS011;40636;52.424;-1.948;2023-04-01T04:10:27;5.93;;;3.08;;
43363;SDS011;40636;52.424;-1.948;2023-04-01T04:12:55;4.43;;;3.00;;
43363;SDS011;40636;52.424;-1.948;2023-04-01T04:15:22;4.85;;;3.08;;
43363;SDS011;40636;52.424;-1.948;2023-04-01T04:17:49;6.15;;;2.95;;
43363;SDS011;40636;52.424;-1.948;2023-04-01T04:20:16;5.32;;;2.60;;
43363;SDS011;40636;52.424;-1.948;2023-04-01T04:22:43;5.35;;;2.67;;
43363;SDS011;40636;52.424;-1.948;2023-04-01T04:25:09;5.88;;;2.40;;
43363;SDS011;40636;52.424;-1.948;2023-04-01T04:27:36;4.43;;;2.40;;
43363;SDS011;40636;52.424;-1.948;2023-04-01T04:30:03;4.53;;;2.83;;
43363;SDS011;40636;52.424;-1.948;2023-04-01T04:32:31;3.47;;;2.20;;
43363;SDS011;40636;52.424;-1.948;2023-04-01T04:34:58;5.80;;;2.95;;
43363;SDS011;40636;52.424;-1.948;2023-04-01T04:37:24;4.80;;;2.80;;
43363;SDS011;40636;52.424;-1.948;2023-04-01T04:39:52;2.67;;;2.15;;
43363;SDS011;40636;52.424;-1.948;2023-04-01T04:42:18;5.30;;;2.80;;
43363;SDS011;40636;52.424;-1.948;2023-04-01T04:44:46;5.53;;;3.33;;
43363;SDS011;40636;52.424;-1.948;2023-04-01T04:47:13;9.00;;;3.47;;
43363;SDS011;40636;52.424;-1.948;2023-04-01T04:49:39;5.85;;;2.95;;
43363;SDS011;40636;52.424;-1.948;2023-04-01T04:52:06;6.22;;;3.17;;
43363;SDS011;40636;52.424;-1.948;2023-04-01T04:54:33;5.93;;;3.13;;
43363;SDS011;40636;52.424;-1.948;2023-04-01T04:57:00;4.07;;;2.72;;
43363;SDS011;40636;52.424;-1.948;2023-04-01T04:59:26;5.95;;;3.15;;
43363;SDS011;40636;52.424;-1.948;2023-04-01T05:01:53;4.28;;;2.90;;
43363;SDS011;40636;52.424;-1.948;2023-04-01T05:04:20;4.30;;;2.88;;
43363;SDS011;40636;52.424;-1.948;2023-04-01T05:06:46;4.35;;;2.72;;
43363;SDS011;40636;52.424;-1.948;2023-04-01T05:09:13;4.68;;;2.70;;
43363;SDS011;40636;52.424;-1.948;2023-04-01T05:11:39;6.20;;;2.78;;
43363;SDS011;40636;52.424;-1.948;2023-04-01T05:14:11;6.10;;;3.08;;
43363;SDS011;40636;52.424;-1.948;2023-04-01T05:16:38;5.82;;;3.25;;
43363;SDS011;40636;52.424;-1.948;2023-04-01T05:19:05;5.22;;;2.92;;
43363;SDS011;40636;52.424;-1.948;2023-04-01T05:21:32;5.15;;;2.90;;
43363;SDS011;40636;52.424;-1.948;2023-04-01T05:23:59;5.72;;;3.20;;
43363;SDS011;40636;52.424;-1.948;2023-04-01T05:26:25;7.43;;;3.67;;
43363;SDS011;40636;52.424;-1.948;2023-04-01T05:28:52;9.52;;;3.65;;
43363;SDS011;40636;52.424;-1.948;2023-04-01T05:31:19;5.80;;;3.95;;
43363;SDS011;40636;52.424;-1.948;2023-04-01T05:33:45;5.22;;;3.33;;
43363;SDS011;40636;52.424;-1.948;2023-04-01T05:36:13;6.78;;;4.07;;
43363;SDS011;40636;52.424;-1.948;2023-04-01T05:38:41;5.10;;;3.45;;
43363;SDS011;40636;52.424;-1.948;2023-04-01T05:41:09;8.70;;;3.55;;
43363;SDS011;40636;52.424;-1.948;2023-04-01T05:43:36;6.72;;;3.70;;
43363;SDS011;40636;52.424;-1.948;2023-04-01T05:46:04;7.35;;;3.25;;
43363;SDS011;40636;52.424;-1.948;2023-04-01T05:48:32;7.65;;;4.05;;
43363;SDS011;40636;52.424;-1.948;2023-04-01T05:51:01;6.38;;;3.75;;
43363;SDS011;40636;52.424;-1.948;2023-04-01T05:53:29;10.15;;;3.75;;
43363;SDS011;40636;52.424;-1.948;2023-04-01T05:55:56;8.13;;;3.88;;
43363;SDS011;40636;52.424;-1.948;2023-04-01T05:58:22;7.05;;;3.65;;
43363;SDS011;40636;52.424;-1.948;2023-04-01T06:00:49;6.22;;;3.88;;
43363;SDS011;40636;52.424;-1.948;2023-04-01T06:03:33;8.65;;;3.58;;
43363;SDS011;40636;52.424;-1.948;2023-04-01T06:06:01;11.48;;;4.30;;
43363;SDS011;40636;52.424;-1.948;2023-04-01T06:08:29;8.32;;;4.47;;
43363;SDS011;40636;52.424;-1.948;2023-04-01T06:13:40;5.18;;;3.47;;
43363;SDS011;40636;52.424;-1.948;2023-04-01T06:25:17;9.20;;;4.32;;
43363;SDS011;40636;52.424;-1.948;2023-04-01T06:39:04;6.75;;;3.97;;
43363;SDS011;40636;52.424;-1.948;2023-04-01T06:49:48;6.07;;;3.92;;
43363;SDS011;40636;52.424;-1.948;2023-04-01T06:52:24;6.47;;;3.92;;
43363;SDS011;40636;52.424;-1.948;2023-04-01T06:58:11;8.65;;;4.80;;
43363;SDS011;40636;52.424;-1.948;2023-04-01T07:00:56;7.95;;;4.03;;
43363;SDS011;40636;52.424;-1.948;2023-04-01T07:03:37;8.90;;;3.88;;
43363;SDS011;40636;52.424;-1.948;2023-04-01T07:06:13;6.90;;;3.90;;
43363;SDS011;40636;52.424;-1.948;2023-04-01T07:08:45;10.45;;;5.82;;
43363;SDS011;40636;52.424;-1.948;2023-04-01T07:11:32;9.70;;;4.68;;
43363;SDS011;40636;52.424;-1.948;2023-04-01T07:14:06;9.85;;;4.35;;
43363;SDS011;40636;52.424;-1.948;2023-04-01T07:16:51;10.90;;;3.90;;
43363;SDS011;40636;52.424;-1.948;2023-04-01T07:25:19;6.85;;;3.83;;
43363;SDS011;40636;52.424;-1.948;2023-04-01T07:27:48;5.93;;;4.00;;
43363;SDS011;40636;52.424;-1.948;2023-04-01T07:30:20;4.30;;;2.95;;
43363;SDS011;40636;52.424;-1.948;2023-04-01T07:33:03;6.20;;;3.83;;
43363;SDS011;40636;52.424;-1.948;2023-04-01T07:48:54;6.28;;;2.92;;
43363;SDS011;40636;52.424;-1.948;2023-04-01T07:54:13;4.25;;;2.50;;
43363;SDS011;40636;52.424;-1.948;2023-04-01T08:02:44;4.80;;;2.55;;
43363;SDS011;40636;52.424;-1.948;2023-04-01T08:08:29;4.35;;;2.30;;
43363;SDS011;40636;52.424;-1.948;2023-04-01T08:16:41;6.07;;;2.10;;
43363;SDS011;40636;52.424;-1.948;2023-04-01T08:21:56;8.27;;;1.90;;
43363;SDS011;40636;52.424;-1.948;2023-04-01T08:24:39;4.10;;;2.25;;
43363;SDS011;40636;52.424;-1.948;2023-04-01T08:27:31;4.53;;;2.40;;
43363;SDS011;40636;52.424;-1.948;2023-04-01T08:32:42;3.88;;;2.15;;
43363;SDS011;40636;52.424;-1.948;2023-04-01T08:38:13;2.80;;;1.70;;
43363;SDS011;40636;52.424;-1.948;2023-04-01T08:46:51;2.30;;;1.70;;
43363;SDS011;40636;52.424;-1.948;2023-04-01T08:52:26;2.88;;;1.65;;
43363;SDS011;40636;52.424;-1.948;2023-04-01T08:55:22;2.50;;;1.75;;
43363;SDS011;40636;52.424;-1.948;2023-04-01T08:58:01;4.28;;;1.92;;
43363;SDS011;40636;52.424;-1.948;2023-04-01T09:07:12;5.82;;;1.90;;
43363;SDS011;40636;52.424;-1.948;2023-04-01T09:12:59;3.17;;;1.98;;
43363;SDS011;40636;52.424;-1.948;2023-04-01T09:23:59;2.58;;;1.50;;
43363;SDS011;40636;52.424;-1.948;2023-04-01T09:40:34;3.05;;;1.80;;
43363;SDS011;40636;52.424;-1.948;2023-04-01T09:43:16;2.47;;;1.38;;
43363;SDS011;40636;52.424;-1.948;2023-04-01T09:48:58;2.50;;;1.13;;
43363;SDS011;40636;52.424;-1.948;2023-04-01T09:57:21;3.58;;;1.77;;
43363;SDS011;40636;52.424;-1.948;2023-04-01T10:18:24;3.83;;;1.55;;
43363;SDS011;40636;52.424;-1.948;2023-04-01T10:26:46;1.90;;;1.40;;
43363;SDS011;40636;52.424;-1.948;2023-04-01T10:29:30;3.10;;;2.05;;
43363;SDS011;40636;52.424;-1.948;2023-04-01T10:49:24;1.95;;;1.35;;
43363;SDS011;40636;52.424;-1.948;2023-04-01T11:01:45;1.25;;;1.13;;
43363;SDS011;40636;52.424;-1.948;2023-04-01T11:09:11;1.58;;;1.10;;
43363;SDS011;40636;52.424;-1.948;2023-04-01T11:20:50;2.65;;;0.85;;
43363;SDS011;40636;52.424;-1.948;2023-04-01T11:23:44;1.67;;;1.23;;
43363;SDS011;40636;52.424;-1.948;2023-04-01T11:32:02;2.72;;;1.25;;
43363;SDS011;40636;52.424;-1.948;2023-04-01T11:37:26;1.40;;;1.10;;
43363;SDS011;40636;52.424;-1.948;2023-04-01T11:40:11;1.43;;;0.90;;
43363;SDS011;40636;52.424;-1.948;2023-04-01T11:42:55;1.77;;;1.25;;
43363;SDS011;40636;52.424;-1.948;2023-04-01T11:45:32;0.90;;;0.90;;
43363;SDS011;40636;52.424;-1.948;2023-04-01T12:02:25;5.00;;;1.25;;
43363;SDS011;40636;52.424;-1.948;2023-04-01T12:08:10;4.57;;;1.50;;
43363;SDS011;40636;52.424;-1.948;2023-04-01T12:15:59;12.80;;;2.60;;
43363;SDS011;40636;52.424;-1.948;2023-04-01T12:23:57;2.85;;;2.08;;
43363;SDS011;40636;52.424;-1.948;2023-04-01T12:51:26;2.78;;;1.98;;
43363;SDS011;40636;52.424;-1.948;2023-04-01T13:10:56;1.77;;;1.42;;
43363;SDS011;40636;52.424;-1.948;2023-04-01T13:24:29;3.08;;;1.20;;
43363;SDS011;40636;52.424;-1.948;2023-04-01T13:27:29;1.80;;;1.10;;
43363;SDS011;40636;52.424;-1.948;2023-04-01T13:35:26;1.52;;;1.27;;
43363;SDS011;40636;52.424;-1.948;2023-04-01T13:38:05;2.65;;;0.90;;
43363;SDS011;40636;52.424;-1.948;2023-04-01T13:43:41;1.13;;;0.90;;
43363;SDS011;40636;52.424;-1.948;2023-04-01T13:49:31;1.05;;;1.00;;
43363;SDS011;40636;52.424;-1.948;2023-04-01T13:58:20;0.90;;;0.90;;
43363;SDS011;40636;52.424;-1.948;2023-04-01T14:15:22;2.25;;;1.17;;
43363;SDS011;40636;52.424;-1.948;2023-04-01T14:29:43;3.67;;;1.67;;
43363;SDS011;40636;52.424;-1.948;2023-04-01T14:48:39;3.75;;;1.42;;
43363;SDS011;40636;52.424;-1.948;2023-04-01T14:54:05;3.25;;;1.42;;
43363;SDS011;40636;52.424;-1.948;2023-04-01T15:02:42;4.80;;;1.10;;
43363;SDS011;40636;52.424;-1.948;2023-04-01T15:10:53;2.88;;;1.05;;
43363;SDS011;40636;52.424;-1.948;2023-04-01T15:19:14;0.88;;;0.85;;
43363;SDS011;40636;52.424;-1.948;2023-04-01T15:30:25;0.70;;;0.70;;
43363;SDS011;40636;52.424;-1.948;2023-04-01T15:46:57;0.77;;;0.50;;
43363;SDS011;40636;52.424;-1.948;2023-04-01T15:49:43;1.08;;;0.45;;
43363;SDS011;40636;52.424;-1.948;2023-04-01T15:52:24;0.70;;;0.70;;
43363;SDS011;40636;52.424;-1.948;2023-04-01T16:04:16;0.70;;;0.70;;
43363;SDS011;40636;52.424;-1.948;2023-04-01T16:19:11;0.73;;;0.60;;
43363;SDS011;40636;52.424;-1.948;2023-04-01T16:22:13;0.85;;;0.70;;
43363;SDS011;40636;52.424;-1.948;2023-04-01T16:27:14;0.68;;;0.68;;
43363;SDS011;40636;52.424;-1.948;2023-04-01T16:29:56;0.77;;;0.65;;
43363;SDS011;40636;52.424;-1.948;2023-04-01T16:32:31;0.60;;;0.60;;
43363;SDS011;40636;52.424;-1.948;2023-04-01T16:51:46;0.70;;;0.70;;
43363;SDS011;40636;52.424;-1.948;2023-04-01T16:54:36;0.60;;;0.60;;
43363;SDS011;40636;52.424;-1.948;2023-04-01T16:57:31;0.52;;;0.52;;
43363;SDS011;40636;52.424;-1.948;2023-04-01T17:00:25;1.38;;;0.80;;
43363;SDS011;40636;52.424;-1.948;2023-04-01T17:03:10;1.33;;;0.80;;
43363;SDS011;40636;52.424;-1.948;2023-04-01T17:05:56;0.65;;;0.57;;
43363;SDS011;40636;52.424;-1.948;2023-04-01T17:11:19;0.70;;;0.70;;
43363;SDS011;40636;52.424;-1.948;2023-04-01T17:17:11;1.13;;;0.80;;
43363;SDS011;40636;52.424;-1.948;2023-04-01T17:20:02;1.02;;;0.80;;
43363;SDS011;40636;52.424;-1.948;2023-04-01T17:41:54;1.45;;;0.98;;
43363;SDS011;40636;52.424;-1.948;2023-04-01T17:52:51;3.53;;;1.08;;
43363;SDS011;40636;52.424;-1.948;2023-04-01T17:58:20;2.33;;;1.25;;
43363;SDS011;40636;52.424;-1.948;2023-04-01T18:12:21;1.10;;;0.90;;
43363;SDS011;40636;52.424;-1.948;2023-04-01T18:17:52;0.90;;;0.90;;
43363;SDS011;40636;52.424;-1.948;2023-04-01T18:26:10;1.02;;;0.88;;
43363;SDS011;40636;52.424;-1.948;2023-04-01T18:28:54;1.52;;;1.02;;
43363;SDS011;40636;52.424;-1.948;2023-04-01T18:31:26;1.42;;;1.02;;
43363;SDS011;40636;52.424;-1.948;2023-04-01T18:34:08;0.90;;;0.90;;
43363;SDS011;40636;52.424;-1.948;2023-04-01T18:37:01;3.28;;;2.15;;
43363;SDS011;40636;52.424;-1.948;2023-04-01T18:40:20;2.63;;;1.10;;
43363;SDS011;40636;52.424;-1.948;2023-04-01T18:43:08;0.93;;;0.85;;
43363;SDS011;40636;52.424;-1.948;2023-04-01T18:45:49;1.27;;;1.10;;
43363;SDS011;40636;52.424;-1.948;2023-04-01T18:51:33;4.13;;;1.20;;
43363;SDS011;40636;52.424;-1.948;2023-04-01T18:54:02;1.73;;;1.15;;
43363;SDS011;40636;52.424;-1.948;2023-04-01T18:56:38;1.25;;;1.05;;
43363;SDS011;40636;52.424;-1.948;2023-04-01T18:59:25;2.13;;;1.40;;
43363;SDS011;40636;52.424;-1.948;2023-04-01T19:02:14;1.50;;;1.15;;
43363;SDS011;40636;52.424;-1.948;2023-04-01T19:04:50;1.58;;;1.20;;
43363;SDS011;40636;52.424;-1.948;2023-04-01T19:10:00;2.05;;;1.17;;
43363;SDS011;40636;52.424;-1.948;2023-04-01T19:12:37;1.60;;;1.30;;
43363;SDS011;40636;52.424;-1.948;2023-04-01T19:15:12;1.67;;;1.13;;
43363;SDS011;40636;52.424;-1.948;2023-04-01T19:18:02;4.57;;;1.40;;
43363;SDS011;40636;52.424;-1.948;2023-04-01T19:20:59;2.25;;;1.30;;
43363;SDS011;40636;52.424;-1.948;2023-04-01T19:23:47;1.27;;;0.98;;
43363;SDS011;40636;52.424;-1.948;2023-04-01T19:40:38;2.17;;;1.60;;
43363;SDS011;40636;52.424;-1.948;2023-04-01T19:46:44;4.18;;;1.77;;
43363;SDS011;40636;52.424;-1.948;2023-04-01T19:49:02;8.60;;;2.15;;
43363;SDS011;40636;52.424;-1.948;2023-04-01T19:54:27;2.03;;;1.63;;
43363;SDS011;40636;52.424;-1.948;2023-04-01T19:57:17;1.92;;;1.45;;
43363;SDS011;40636;52.424;-1.948;2023-04-01T20:00:18;3.17;;;1.55;;
43363;SDS011;40636;52.424;-1.948;2023-04-01T20:03:05;1.77;;;1.52;;
43363;SDS011;40636;52.424;-1.948;2023-04-01T20:08:12;3.30;;;2.22;;
43363;SDS011;40636;52.424;-1.948;2023-04-01T20:11:01;1.60;;;1.50;;
43363;SDS011;40636;52.424;-1.948;2023-04-01T20:13:58;3.33;;;1.80;;
43363;SDS011;40636;52.424;-1.948;2023-04-01T20:16:40;3.42;;;2.00;;
43363;SDS011;40636;52.424;-1.948;2023-04-01T20:19:10;2.97;;;1.73;;
43363;SDS011;40636;52.424;-1.948;2023-04-01T20:21:41;2.55;;;1.55;;
43363;SDS011;40636;52.424;-1.948;2023-04-01T20:26:40;5.15;;;2.10;;
43363;SDS011;40636;52.424;-1.948;2023-04-01T20:32:10;4.88;;;2.30;;
43363;SDS011;40636;52.424;-1.948;2023-04-01T20:37:39;4.32;;;1.98;;
43363;SDS011;40636;52.424;-1.948;2023-04-01T20:43:14;3.83;;;2.60;;
43363;SDS011;40636;52.424;-1.948;2023-04-01T20:51:15;7.03;;;2.30;;
43363;SDS011;40636;52.424;-1.948;2023-04-01T20:54:05;6.63;;;2.22;;
43363;SDS011;40636;52.424;-1.948;2023-04-01T20:56:57;3.75;;;2.38;;
43363;SDS011;40636;52.424;-1.948;2023-04-01T21:05:05;4.10;;;2.28;;
43363;SDS011;40636;52.424;-1.948;2023-04-01T21:10:35;3.10;;;2.35;;
43363;SDS011;40636;52.424;-1.948;2023-04-01T21:32:04;7.18;;;2.60;;
43363;SDS011;40636;52.424;-1.948;2023-04-01T21:40:39;5.75;;;2.53;;
43363;SDS011;40636;52.424;-1.948;2023-04-01T21:43:32;2.28;;;1.90;;
43363;SDS011;40636;52.424;-1.948;2023-04-01T22:00:38;4.28;;;2.55;;
43363;SDS011;40636;52.424;-1.948;2023-04-01T22:05:56;5.22;;;2.40;;
43363;SDS011;40636;52.424;-1.948;2023-04-01T22:14:16;2.92;;;2.03;;
43363;SDS011;40636;52.424;-1.948;2023-04-01T22:17:32;3.35;;;2.08;;
43363;SDS011;40636;52.424;-1.948;2023-04-01T22:28:07;3.50;;;2.33;;
43363;SDS011;40636;52.424;-1.948;2023-04-01T22:30:43;4.18;;;2.60;;
43363;SDS011;40636;52.424;-1.948;2023-04-01T22:33:47;5.93;;;2.38;;
43363;SDS011;40636;52.424;-1.948;2023-04-01T22:42:14;4.78;;;2.60;;
43363;SDS011;40636;52.424;-1.948;2023-04-01T22:47:40;2.83;;;2.15;;
43363;SDS011;40636;52.424;-1.948;2023-04-01T22:50:21;5.38;;;2.78;;
43363;SDS011;40636;52.424;-1.948;2023-04-01T22:53:06;7.68;;;3.00;;
43363;SDS011;40636;52.424;-1.948;2023-04-01T22:55:44;3.85;;;2.33;;
43363;SDS011;40636;52.424;-1.948;2023-04-01T22:58:24;3.53;;;2.27;;
43363;SDS011;40636;52.424;-1.948;2023-04-01T23:00:58;4.40;;;3.17;;
43363;SDS011;40636;52.424;-1.948;2023-04-01T23:03:32;7.82;;;3.45;;
43363;SDS011;40636;52.424;-1.948;2023-04-01T23:06:02;5.25;;;2.40;;
43363;SDS011;40636;52.424;-1.948;2023-04-01T23:11:18;5.60;;;3.70;;
43363;SDS011;40636;52.424;-1.948;2023-04-01T23:16:36;5.95;;;2.70;;
43363;SDS011;40636;52.424;-1.948;2023-04-01T23:22:16;6.35;;;3.15;;
43363;SDS011;40636;52.424;-1.948;2023-04-01T23:27:59;5.45;;;2.92;;
43363;SDS011;40636;52.424;-1.948;2023-04-01T23:30:47;6.25;;;3.00;;
43363;SDS011;40636;52.424;-1.948;2023-04-01T23:35:49;12.00;;;3.25;;
43363;SDS011;40636;52.424;-1.948;2023-04-01T23:38:18;7.47;;;3.38;;
43363;SDS011;40636;52.424;-1.948;2023-04-01T23:40:47;4.60;;;2.78;;
43363;SDS011;40636;52.424;-1.948;2023-04-01T23:48:25;7.07;;;3.47;;
43363;SDS011;40636;52.424;-1.948;2023-04-01T23:50:58;6.82;;;3.92;;
43363;SDS011;40636;52.424;-1.948;2023-04-01T23:53:26;7.50;;;3.30;;
43363;SDS011;40636;52.424;-1.948;2023-04-01T23:56:03;4.40;;;3.05;;
